Bookmark and Share
Track history (hours):
 

Omskiy-141

Last reported at 2014-Apr-18 14:10 UTC. Time now 2014-Apr-18 20:59 UTC.
Position N 54°39' E 019°50'.

Length 108 m; draft 2.6 m.

Type: Cargo ship. MMSI: 273310600.

NotesDate/timePositionNaut miles runAvg speedWind from/ knotsBaromVisibWave heightAir tempDewpointWater temp
2014-Apr-18 14:10N 54°39' E 019°50'1 0.2
2014-Apr-18 06:25N 54°40' E 019°48'0 0.0
2014-Apr-18 05:22N 54°40' E 019°48'0 0.0
2014-Apr-18 04:31N 54°40' E 019°48'3 2.8
2014-Apr-18 03:33N 54°41' E 019°44'8 8.1
2014-Apr-18 02:33N 54°41' E 019°30'8 8.3
2014-Apr-18 01:33N 54°42' E 019°16'8 8.3
2014-Apr-18 00:33N 54°41' E 019°02'8 8.3
2014-Apr-17 23:33N 54°35' E 018°53'9 8.8
2014-Apr-17 22:33N 54°28' E 018°42'6 5.7
2014-Apr-17 21:33N 54°22' E 018°40'1 0.6
2014-Apr-17 20:32N 54°22' E 018°40'0 0.0
2014-Apr-17 19:32N 54°22' E 018°40'0 0.0
2014-Apr-17 18:32N 54°22' E 018°40'0 0.0
2014-Apr-17 17:32N 54°22' E 018°40'0 0.0
2014-Apr-17 16:32N 54°22' E 018°40'0 0.0
2014-Apr-17 15:32N 54°22' E 018°40'0 0.0
2014-Apr-17 14:32N 54°22' E 018°40'0 0.0
2014-Apr-17 13:32N 54°22' E 018°40'0 0.0
2014-Apr-17 12:32N 54°22' E 018°40'0 0.0
2014-Apr-17 11:32N 54°22' E 018°40'0 0.0
2014-Apr-17 10:29N 54°22' E 018°40'0 0.0
2014-Apr-17 09:32N 54°22' E 018°40'0 0.0
2014-Apr-17 08:32N 54°22' E 018°40'0 0.0
2014-Apr-17 07:32N 54°22' E 018°40'0 0.0
2014-Apr-17 06:32N 54°22' E 018°40'0 0.0
2014-Apr-17 05:33N 54°22' E 018°40'0 0.0
2014-Apr-17 04:33N 54°22' E 018°40'0 0.0
2014-Apr-17 03:32N 54°22' E 018°40'0 0.0
2014-Apr-17 02:32N 54°22' E 018°40'0 0.0
2014-Apr-17 01:32N 54°22' E 018°40'0 0.0
2014-Apr-17 00:32N 54°22' E 018°40'0 0.0
2014-Apr-16 23:32N 54°22' E 018°40'0 0.0
2014-Apr-16 22:32N 54°22' E 018°40'0 0.0
2014-Apr-16 21:32N 54°22' E 018°40'0 0.0
2014-Apr-16 20:32N 54°22' E 018°40'0 0.0
2014-Apr-16 19:32N 54°22' E 018°40'0 0.0
2014-Apr-16 18:32N 54°22' E 018°40'0 0.0
2014-Apr-16 17:32N 54°22' E 018°40'0 0.0
2014-Apr-16 16:33N 54°22' E 018°40'0 0.0
2014-Apr-16 15:33N 54°22' E 018°40'0 0.0
2014-Apr-16 14:32N 54°22' E 018°40'0 0.0
2014-Apr-16 13:29N 54°22' E 018°40'0 0.0
2014-Apr-16 12:32N 54°22' E 018°40'0 0.0
2014-Apr-16 11:33N 54°22' E 018°40'0 0.0
2014-Apr-16 10:32N 54°22' E 018°40'0 0.0
2014-Apr-16 09:32N 54°22' E 018°40'0 0.0
2014-Apr-16 08:29N 54°22' E 018°40'0 0.0
2014-Apr-16 07:29N 54°22' E 018°40'0 0.0
2014-Apr-16 06:32N 54°22' E 018°40'0 0.2
2014-Apr-16 05:34N 54°22' E 018°40'5 5.2
2014-Apr-16 04:33N 54°27' E 018°40'3 3.3
2014-Apr-16 03:34N 54°29' E 018°44'5 4.5
2014-Apr-16 02:34N 54°33' E 018°49'7 7.0
2014-Apr-16 01:34N 54°39' E 018°55'7 6.9
2014-Apr-16 00:33N 54°42' E 019°06'7 7.1
2014-Apr-15 23:33N 54°42' E 019°18'7 7.1
2014-Apr-15 22:33N 54°42' E 019°30'7 7.1
2014-Apr-15 21:32N 54°41' E 019°43'8 6.1
2014-Apr-15 20:15N 54°38' E 019°55'11 2.2
2014-Apr-15 15:21N 54°41' E 020°13'  
2014-Apr-12 13:11N 54°39' E 019°52'2 0.5
2014-Apr-12 08:15N 54°39' E 019°48'5 8.0
2014-Apr-12 07:33N 54°42' E 019°41'9 9.0
2014-Apr-12 06:33N 54°44' E 019°26'9 9.0
2014-Apr-12 05:33N 54°47' E 019°11'9 8.8
2014-Apr-12 04:33N 54°49' E 018°56'9 8.9
2014-Apr-12 03:31N 54°52' E 018°41'9 8.9
2014-Apr-12 02:33N 54°54' E 018°26'9 8.7
2014-Apr-12 01:33N 54°54' E 018°11'136 8.8
2014-Apr-11 10:06N 54°36' E 014°18'5 8.5
2014-Apr-11 09:33N 54°38' E 014°10'8 8.4
2014-Apr-11 08:33N 54°40' E 013°56'8 8.5
2014-Apr-11 07:34N 54°43' E 013°42'9 8.9
2014-Apr-11 06:34N 54°44' E 013°27'9 8.9
2014-Apr-11 05:34N 54°44' E 013°12'9 8.5
2014-Apr-11 04:33N 54°44' E 012°57'8 8.2
2014-Apr-11 03:34N 54°41' E 012°43'9 9.1
2014-Apr-11 02:34N 54°36' E 012°30'9 9.1
2014-Apr-11 01:34N 54°31' E 012°17'9 8.7
2014-Apr-11 00:34N 54°24' E 012°10'9 8.6
2014-Apr-10 23:31N 54°24' E 011°54'8 8.7
2014-Apr-10 22:34N 54°26' E 011°40'8 7.6
2014-Apr-10 21:34N 54°30' E 011°29'6 6.2
2014-Apr-10 20:33N 54°32' E 011°19'52 7.4
2014-Apr-10 13:33N 54°50' E 009°55'8 7.6
2014-Apr-10 12:33N 54°50' E 009°41'4 0.1
2014-Apr-09 09:33N 54°53' E 009°38'6 5.9
2014-Apr-09 08:31N 54°50' E 009°47'7 6.7
2014-Apr-09 07:33N 54°49' E 009°58'44 7.0
2014-Apr-09 01:13N 54°36' E 011°12'4 6.7
2014-Apr-09 00:34N 54°34' E 011°18'7 6.9
2014-Apr-08 23:33N 54°31' E 011°29'7 7.4
2014-Apr-08 22:33N 54°28' E 011°41'7 6.9
2014-Apr-08 21:33N 54°26' E 011°52'6 6.1
2014-Apr-08 20:33N 54°22' E 011°60'8 8.2
2014-Apr-08 19:32N 54°14' E 012°05'7 7.0
2014-Apr-08 18:31N 54°07' E 012°05'0 0.4
2014-Apr-08 17:32N 54°07' E 012°05'0 0.0
2014-Apr-08 16:26N 54°07' E 012°05'0 0.0
2014-Apr-08 15:31N 54°07' E 012°05'0 0.0
2014-Apr-08 14:31N 54°07' E 012°05'  

Dump ship's entire track history

sailing weather and tide predictions

Omskiy-141 — UGZK — position and weather